Terminal Aerodrome Forecast
Issued by NWS

Home | Current Version | Previous Version | Graphics & Text | Print | Product List | Glossary On
Versions: 1 2 3 4 5 6 7 8 9 10 11 12 13 14 15 16 17 18 19 20 21
000
FTUS43 KBIS 140811 AAA
TAFDIK
TAF AMD
KDIK 140811Z 1408/1506 01009KT P6SM SCT025 BKN070
     FM141100 01009KT P6SM OVC003
     FM141600 35013KT P6SM BKN007
     FM142100 32017G25KT P6SM FEW035 FEW200
     FM150000 30008KT P6SM FEW050 FEW250
     FM150200 25006KT P6SM FEW040 FEW250=

USA.gov is the U.S. government's official web portal to all federal, state and local government web resources and services.